Historyczne dane pomiarowe

Dodano dane terminowe – wersja testowa.

Dane z okresu 1951-2019

Wersja bazy: 1.34 [2019-03-16, lista zmian], aktualizacja planowana na 2019-04-15

Dane meteo z obszaru Polski uzyskane na podstawie danych udostępnionych przez Instytut Meteorologii i Gospodarki Wodnej – Państwowy Instytut Badawczy.

 

Wybierz Datę:    

       

TemperaturaWilgotnośćWiatrCiśnienieOpadyŚniegCzas trwania zjawisk
 Stacja t tx tn tng RH VA  wxwx mslp ppp RRR   cm mm wxwxwxwxwxwxwx
1983-08-14 13.3 16.2 9.4 8.9 74.8- 3.3 2.3---- 0.7------------
1983-08-13 15.2 23.6 12.4 12.9 80.8- 8.0 3.0---- 9.7------------
1983-08-12 20.1 26.4 16.5 12.4 71.3- 7.0 1.0---- 1.4------------
1983-08-11 18.4 22.5 14.4 10.4 83.0- 6.7 3.0---- 0.0------------
1983-08-10 17.8 25.9 10.9 8.9 84.8- 7.3 1.7---- 7.5------------
1983-08-09 18.8 25.4 14.4 13.4 81.0- 6.7 2.3---- 3.0------------
1983-08-08 20.3 25.4 15.5 13.4 71.8- 4.0 3.0---- 8.3------------
1983-08-07 17.6 23.0 13.4 8.9 85.5- 8.0 1.3---- 6.3------------
1983-08-06 15.2 21.0 8.9 6.9 69.5- 6.3 1.3---- 2.7------------
1983-08-05 13.5 16.5 9.9 8.4 75.3- 6.3 2.0---- 0.0------------
1983-08-04 12.5 20.6 10.4 7.4 80.0- 8.0 3.0---- 7.5------------
1983-08-03 20.4 26.4 16.5 13.9 77.5- 5.7 2.3---- 34.5------------
1983-08-02 22.4 30.4 14.4 11.9 62.0- 0.0 0.7---- 0.1------------
1983-08-01 18.9 26.4 9.4 8.9 54.3- 0.0 2.0---- 0.0------------
1983-07-31 17.6 23.0 11.9 9.9 55.3- 0.3 1.7---- 0.0------------
1983-07-30 18.1 22.5 14.4 10.4 68.8- 2.3 3.0---- 0.0------------
1983-07-29 20.0 25.4 13.9 10.9 59.5- 1.7 1.7---- 0.3------------
1983-07-28 22.3 28.5 17.0 13.9 64.0- 0.0 1.7---- 0.0------------
1983-07-27 22.6 29.4 16.0 11.9 65.5- 1.7 1.7---- 0.0------------
1983-07-26 20.3 26.4 13.9 8.9 66.5- 0.7 1.0---- 0.0------------
1983-07-25 14.3 20.5 9.4 7.4 72.3- 7.7 2.3---- 0.0------------
1983-07-24 15.3 18.0 13.4 12.4 78.8- 8.0 2.3---- 8.5------------
1983-07-23 16.0 20.5 11.9 9.4 66.8- 8.0 3.0---- 4.3------------
1983-07-22 13.1 16.0 9.9 8.4 62.0- 0.3 3.0---- 2.0------------
1983-07-21 13.5 17.0 10.9 9.4 61.8- 1.3 4.0---- 0.0------------
1983-07-20 16.3 24.5 12.4 13.9 78.5- 8.0 1.0---- 0.6------------
1983-07-19 22.4 31.9 14.4 10.4 62.3- 4.3 1.0---- 12.8------------
1983-07-18 21.5 27.9 11.9 10.4 60.3- 0.0 1.0---- 0.0------------
1983-07-17 20.9 25.9 16.0 14.4 66.3- 0.0 3.0---- 0.0------------
1983-07-16 21.1 27.9 13.9 12.4 65.5- 0.0 1.3---- 0.0------------
1983-07-15 19.5 25.4 14.4 12.4 57.5- 2.0 1.7---- 0.2------------
1983-07-14 17.1 19.0 16.0 13.4 84.5- 8.0 2.0---- 12.6------------
1983-07-13 16.6 19.0 13.9 12.4 84.3- 8.0 1.0---- 26.2------------
1983-07-12 18.9 26.9 16.2 15.8 83.5- 8.0 1.0---- 25.5------------
1983-07-11 21.2 26.9 16.0 14.4 70.3- 4.7 2.7---- 21.3------------
1983-07-10 22.8 29.9 13.4 11.9 56.3- 0.0 1.0---- 0.0------------
1983-07-09 22.1 28.9 12.4 10.9 56.3- 0.7 1.0---- 2.2------------
1983-07-08 20.2 26.9 9.4 6.9 49.8- 0.3 1.0---- 0.0------------
1983-07-07 21.5 27.4 11.9 10.4 54.3- 2.0 1.7---- 0.0------------
1983-07-06 20.8 27.9 9.9 8.9 53.8- 4.7 3.0---- 0.0------------
1983-07-05 20.0 26.4 11.9 10.9 60.5- 2.7 3.0---- 0.0------------
1983-07-04 18.5 26.9 8.9 7.4 61.8- 0.0 1.3---- 0.0------------
1983-07-03 18.5 23.5 11.9 9.9 64.3- 0.3 1.0---- 0.0------------
1983-07-02 18.9 26.5 11.9 10.4 69.0- 2.7 1.0---- 3.3------------
1983-07-01 19.8 26.9 8.9 7.4 63.8- 0.0 3.0---- 0.0------------
1983-06-30 15.2 23.0 6.0 4.4 67.0- 0.0 2.3---- 0.0------------
1983-06-29 16.6 19.0 10.9 8.9 57.8- 1.7 3.0---- 0.0------------
1983-06-28 18.3 22.5 16.0 11.9 76.8- 6.7 1.0---- 0.6------------
1983-06-27 21.8 28.0 13.9 10.9 69.3- 3.0 1.7---- 1.8------------
1983-06-26 20.9 25.4 17.5 14.4 70.8- 6.0 1.7---- 0.1------------
1983-06-25 22.6 28.9 11.9 9.9 53.8- 0.7 2.3---- 0.0------------
1983-06-24 18.9 26.9 7.0 4.4 53.8- 2.3 1.7---- 0.0------------
1983-06-23 15.5 21.0 5.0 1.9 51.3- 0.0 3.0---- 0.0------------
1983-06-22 15.8 20.5 9.9 7.9 55.8- 0.0 2.0---- 0.0------------
1983-06-21 19.5 24.5 12.4 10.4 68.3- 0.7 2.3---- 0.0------------
1983-06-20 19.7 22.5 16.0 14.4 72.5- 8.0 1.3---- 22.0------------
1983-06-19 19.0 24.0 12.4 9.9 79.0- 5.7 3.3---- 5.0------------
1983-06-18 13.8 15.1 10.4 8.9 84.3- 8.0 1.3---- 18.2------------
1983-06-17 14.4 17.0 11.4 8.9 70.0- 3.7 1.0---- 5.4------------
1983-06-16 13.9 17.0 11.4 10.4 80.3- 8.0 3.0---- 2.1------------
694.1 ms

 

Źródłem pochodzenia danych jest Instytut Meteorologii i Gospodarki Wodnej – Państwowy Instytut Badawczy. Dane Instytutu Meteorologii i Gospodarki Wodnej – Państwowego Instytutu Badawczego zostały przetworzone.

Dane źródłowe można odnaleźć na stronie https://dane.imgw.pl